sensor_id;sensor_type;location;lat;lon;timestamp;pressure;altitude;pressure_sealevel;temperature;humidity
50380;BME280;37474;59.468;18.040;2024-02-23T00:01:06;98812.53;;;2.35;100.00
50380;BME280;37474;59.468;18.040;2024-02-23T00:03:34;98792.38;;;2.29;100.00
50380;BME280;37474;59.468;18.040;2024-02-23T00:06:05;98809.09;;;2.36;100.00
50380;BME280;37474;59.468;18.040;2024-02-23T00:08:33;98796.16;;;2.40;100.00
50380;BME280;37474;59.468;18.040;2024-02-23T00:11:01;98802.94;;;2.41;100.00
50380;BME280;37474;59.468;18.040;2024-02-23T00:13:31;98799.47;;;2.42;100.00
50380;BME280;37474;59.468;18.040;2024-02-23T00:15:59;98795.16;;;2.42;100.00
50380;BME280;37474;59.468;18.040;2024-02-23T00:18:27;98786.53;;;2.45;100.00
50380;BME280;37474;59.468;18.040;2024-02-23T00:20:55;98775.44;;;2.44;100.00
50380;BME280;37474;59.468;18.040;2024-02-23T00:23:25;98772.84;;;2.46;100.00
50380;BME280;37474;59.468;18.040;2024-02-23T00:25:53;98762.59;;;2.46;100.00
50380;BME280;37474;59.468;18.040;2024-02-23T00:28:21;98769.47;;;2.45;100.00
50380;BME280;37474;59.468;18.040;2024-02-23T00:30:49;98755.00;;;2.44;100.00
50380;BME280;37474;59.468;18.040;2024-02-23T00:33:19;98754.03;;;2.47;100.00
50380;BME280;37474;59.468;18.040;2024-02-23T00:35:47;98748.00;;;2.48;100.00
50380;BME280;37474;59.468;18.040;2024-02-23T00:38:15;98749.13;;;2.42;100.00
50380;BME280;37474;59.468;18.040;2024-02-23T00:40:44;98736.13;;;2.47;100.00
50380;BME280;37474;59.468;18.040;2024-02-23T00:43:13;98737.16;;;2.43;100.00
50380;BME280;37474;59.468;18.040;2024-02-23T00:45:41;98737.03;;;2.46;100.00
50380;BME280;37474;59.468;18.040;2024-02-23T00:48:09;98741.25;;;2.47;100.00
50380;BME280;37474;59.468;18.040;2024-02-23T00:50:37;98723.25;;;2.48;100.00
50380;BME280;37474;59.468;18.040;2024-02-23T00:53:05;98730.09;;;2.48;100.00
50380;BME280;37474;59.468;18.040;2024-02-23T00:55:33;98728.38;;;2.48;100.00
50380;BME280;37474;59.468;18.040;2024-02-23T00:58:03;98715.50;;;2.50;100.00
50380;BME280;37474;59.468;18.040;2024-02-23T01:00:31;98711.47;;;2.46;100.00
50380;BME280;37474;59.468;18.040;2024-02-23T01:02:59;98713.78;;;2.50;100.00
50380;BME280;37474;59.468;18.040;2024-02-23T01:05:27;98706.03;;;2.52;100.00
50380;BME280;37474;59.468;18.040;2024-02-23T01:07:55;98695.88;;;2.50;100.00
50380;BME280;37474;59.468;18.040;2024-02-23T01:10:23;98691.66;;;2.49;100.00
50380;BME280;37474;59.468;18.040;2024-02-23T01:12:52;98691.66;;;2.49;100.00
50380;BME280;37474;59.468;18.040;2024-02-23T01:15:21;98683.09;;;2.50;100.00
50380;BME280;37474;59.468;18.040;2024-02-23T01:17:49;98684.06;;;2.48;100.00
50380;BME280;37474;59.468;18.040;2024-02-23T01:20:17;98666.91;;;2.50;100.00
50380;BME280;37474;59.468;18.040;2024-02-23T01:22:45;98667.16;;;2.45;100.00
50380;BME280;37474;59.468;18.040;2024-02-23T01:25:14;98660.13;;;2.49;100.00
50380;BME280;37474;59.468;18.040;2024-02-23T01:27:42;98660.13;;;2.49;100.00
50380;BME280;37474;59.468;18.040;2024-02-23T01:30:11;98648.16;;;2.49;100.00
50380;BME280;37474;59.468;18.040;2024-02-23T01:32:41;98647.34;;;2.49;100.00
50380;BME280;37474;59.468;18.040;2024-02-23T01:35:09;98635.38;;;2.49;100.00
50380;BME280;37474;59.468;18.040;2024-02-23T01:37:37;98625.47;;;2.43;100.00
50380;BME280;37474;59.468;18.040;2024-02-23T01:40:06;98624.31;;;2.49;100.00
50380;BME280;37474;59.468;18.040;2024-02-23T01:42:34;98624.19;;;2.52;100.00
50380;BME280;37474;59.468;18.040;2024-02-23T01:45:03;98620.72;;;2.53;100.00
50380;BME280;37474;59.468;18.040;2024-02-23T01:47:31;98620.84;;;2.50;100.00
50380;BME280;37474;59.468;18.040;2024-02-23T01:50:01;98619.22;;;2.49;100.00
50380;BME280;37474;59.468;18.040;2024-02-23T01:52:30;98620.78;;;2.51;100.00
50380;BME280;37474;59.468;18.040;2024-02-23T01:54:58;98616.59;;;2.50;100.00
50380;BME280;37474;59.468;18.040;2024-02-23T01:57:27;98608.91;;;2.50;100.00
50380;BME280;37474;59.468;18.040;2024-02-23T02:00:16;98603.13;;;2.47;100.00
50380;BME280;37474;59.468;18.040;2024-02-23T02:02:45;98594.41;;;2.51;100.00
50380;BME280;37474;59.468;18.040;2024-02-23T02:05:16;98591.06;;;2.49;100.00
50380;BME280;37474;59.468;18.040;2024-02-23T02:07:44;98585.13;;;2.48;100.00
50380;BME280;37474;59.468;18.040;2024-02-23T02:10:15;98575.72;;;2.49;100.00
50380;BME280;37474;59.468;18.040;2024-02-23T02:12:43;98570.63;;;2.49;100.00
50380;BME280;37474;59.468;18.040;2024-02-23T02:15:11;98571.53;;;2.48;100.00
50380;BME280;37474;59.468;18.040;2024-02-23T02:17:39;98554.88;;;2.41;100.00
50380;BME280;37474;59.468;18.040;2024-02-23T02:20:11;98558.84;;;2.46;100.00
50380;BME280;37474;59.468;18.040;2024-02-23T02:22:41;98556.09;;;2.49;100.00
50380;BME280;37474;59.468;18.040;2024-02-23T02:25:09;98561.31;;;2.48;100.00
50380;BME280;37474;59.468;18.040;2024-02-23T02:27:37;98550.97;;;2.49;100.00
50380;BME280;37474;59.468;18.040;2024-02-23T02:30:06;98542.81;;;2.43;100.00
50380;BME280;37474;59.468;18.040;2024-02-23T02:32:35;98552.66;;;2.50;100.00
50380;BME280;37474;59.468;18.040;2024-02-23T02:35:04;98540.59;;;2.52;100.00
50380;BME280;37474;59.468;18.040;2024-02-23T02:37:32;98546.53;;;2.53;100.00
50380;BME280;37474;59.468;18.040;2024-02-23T02:40:06;98537.59;;;2.44;100.00
50380;BME280;37474;59.468;18.040;2024-02-23T02:42:34;98534.56;;;2.53;100.00
50380;BME280;37474;59.468;18.040;2024-02-23T02:45:03;98537.84;;;2.55;100.00
50380;BME280;37474;59.468;18.040;2024-02-23T02:47:31;98519.47;;;2.49;100.00
50380;BME280;37474;59.468;18.040;2024-02-23T02:49:59;98521.69;;;2.55;100.00
50380;BME280;37474;59.468;18.040;2024-02-23T02:52:27;98517.41;;;2.55;100.00
50380;BME280;37474;59.468;18.040;2024-02-23T02:54:55;98503.78;;;2.55;100.00
50380;BME280;37474;59.468;18.040;2024-02-23T02:57:25;98491.34;;;2.49;100.00
50380;BME280;37474;59.468;18.040;2024-02-23T02:59:53;98491.75;;;2.57;100.00
50380;BME280;37474;59.468;18.040;2024-02-23T03:02:21;98487.47;;;2.57;100.00
50380;BME280;37474;59.468;18.040;2024-02-23T03:04:50;98479.69;;;2.59;100.00
50380;BME280;37474;59.468;18.040;2024-02-23T03:07:18;98480.59;;;2.58;100.00
50380;BME280;37474;59.468;18.040;2024-02-23T03:09:46;98481.44;;;2.58;100.00
50380;BME280;37474;59.468;18.040;2024-02-23T03:12:15;98480.59;;;2.58;100.00
50380;BME280;37474;59.468;18.040;2024-02-23T03:14:45;98471.09;;;2.60;100.00
50380;BME280;37474;59.468;18.040;2024-02-23T03:17:13;98461.31;;;2.52;100.00
50380;BME280;37474;59.468;18.040;2024-02-23T03:19:41;98465.25;;;2.58;100.00
50380;BME280;37474;59.468;18.040;2024-02-23T03:22:09;98447.34;;;2.58;100.00
50380;BME280;37474;59.468;18.040;2024-02-23T03:24:37;98443.16;;;2.57;100.00
50380;BME280;37474;59.468;18.040;2024-02-23T03:27:05;98439.69;;;2.58;100.00
50380;BME280;37474;59.468;18.040;2024-02-23T03:29:34;98428.72;;;2.56;100.00
50380;BME280;37474;59.468;18.040;2024-02-23T03:32:03;98416.75;;;2.56;100.00
50380;BME280;37474;59.468;18.040;2024-02-23T03:34:32;98410.97;;;2.53;100.00
50380;BME280;37474;59.468;18.040;2024-02-23T03:37:00;98407.41;;;2.55;100.00
50380;BME280;37474;59.468;18.040;2024-02-23T03:39:29;98409.66;;;2.61;100.00
50380;BME280;37474;59.468;18.040;2024-02-23T03:41:58;98397.75;;;2.60;100.00
50380;BME280;37474;59.468;18.040;2024-02-23T03:44:26;98393.50;;;2.61;100.00
50380;BME280;37474;59.468;18.040;2024-02-23T03:46:55;98383.25;;;2.61;100.00
50380;BME280;37474;59.468;18.040;2024-02-23T03:49:24;98396.78;;;2.63;100.00
50380;BME280;37474;59.468;18.040;2024-02-23T03:51:52;98387.81;;;2.56;100.00
50380;BME280;37474;59.468;18.040;2024-02-23T03:54:20;98388.19;;;2.64;100.00
50380;BME280;37474;59.468;18.040;2024-02-23T03:56:48;98388.91;;;2.66;100.00
50380;BME280;37474;59.468;18.040;2024-02-23T03:59:16;98394.03;;;2.66;100.00
50380;BME280;37474;59.468;18.040;2024-02-23T04:01:49;98389.19;;;2.61;100.00
50380;BME280;37474;59.468;18.040;2024-02-23T04:04:17;98389.66;;;2.68;100.00
50380;BME280;37474;59.468;18.040;2024-02-23T04:06:47;98375.50;;;2.62;100.00
50380;BME280;37474;59.468;18.040;2024-02-23T04:09:15;98374.31;;;2.68;100.00
50380;BME280;37474;59.468;18.040;2024-02-23T04:11:43;98379.53;;;2.67;100.00
50380;BME280;37474;59.468;18.040;2024-02-23T04:14:11;98364.25;;;2.65;100.00
50380;BME280;37474;59.468;18.040;2024-02-23T04:16:39;98365.16;;;2.64;100.00
50380;BME280;37474;59.468;18.040;2024-02-23T04:19:07;98354.19;;;2.62;100.00
50380;BME280;37474;59.468;18.040;2024-02-23T04:21:39;98364.25;;;2.65;100.00
50380;BME280;37474;59.468;18.040;2024-02-23T04:24:08;98372.84;;;2.64;100.00
50380;BME280;37474;59.468;18.040;2024-02-23T04:26:36;98371.91;;;2.65;100.00
50380;BME280;37474;59.468;18.040;2024-02-23T04:29:04;98362.59;;;2.64;100.00
50380;BME280;37474;59.468;18.040;2024-02-23T04:31:36;98370.94;;;2.68;100.00
50380;BME280;37474;59.468;18.040;2024-02-23T04:34:04;98368.28;;;2.69;100.00
50380;BME280;37474;59.468;18.040;2024-02-23T04:36:32;98341.22;;;2.65;100.00
50380;BME280;37474;59.468;18.040;2024-02-23T04:39:00;98340.31;;;2.66;100.00
50380;BME280;37474;59.468;18.040;2024-02-23T04:41:31;98334.94;;;2.71;100.00
50380;BME280;37474;59.468;18.040;2024-02-23T04:43:59;98334.84;;;2.72;100.00
50380;BME280;37474;59.468;18.040;2024-02-23T04:46:30;98332.47;;;2.69;100.00
50380;BME280;37474;59.468;18.040;2024-02-23T04:48:58;98324.44;;;2.75;100.00
50380;BME280;37474;59.468;18.040;2024-02-23T04:51:26;98333.19;;;2.71;100.00
50380;BME280;37474;59.468;18.040;2024-02-23T04:53:54;98319.66;;;2.69;100.00
50380;BME280;37474;59.468;18.040;2024-02-23T04:56:22;98331.19;;;2.76;100.00
50380;BME280;37474;59.468;18.040;2024-02-23T04:58:52;98328.56;;;2.78;100.00
50380;BME280;37474;59.468;18.040;2024-02-23T05:01:20;98319.31;;;2.75;100.00
50380;BME280;37474;59.468;18.040;2024-02-23T05:03:48;98313.53;;;2.72;100.00
50380;BME280;37474;59.468;18.040;2024-02-23T05:06:16;98325.16;;;2.77;100.00
50380;BME280;37474;59.468;18.040;2024-02-23T05:08:45;98319.16;;;2.78;100.00
50380;BME280;37474;59.468;18.040;2024-02-23T05:11:14;98308.00;;;2.79;100.00
50380;BME280;37474;59.468;18.040;2024-02-23T05:13:42;98293.94;;;2.72;100.00
50380;BME280;37474;59.468;18.040;2024-02-23T05:16:13;98305.44;;;2.79;100.00
50380;BME280;37474;59.468;18.040;2024-02-23T05:18:41;98296.13;;;2.78;100.00
50380;BME280;37474;59.468;18.040;2024-02-23T05:21:10;98293.38;;;2.81;100.00
50380;BME280;37474;59.468;18.040;2024-02-23T05:23:38;98293.56;;;2.78;100.00
50380;BME280;37474;59.468;18.040;2024-02-23T05:26:07;98285.59;;;2.83;100.00
50380;BME280;37474;59.468;18.040;2024-02-23T05:28:35;98283.78;;;2.85;100.00
50380;BME280;37474;59.468;18.040;2024-02-23T05:31:04;98262.94;;;2.77;100.00
50380;BME280;37474;59.468;18.040;2024-02-23T05:33:34;98262.09;;;2.76;100.00
50380;BME280;37474;59.468;18.040;2024-02-23T05:36:03;98263.31;;;2.85;100.00
50380;BME280;37474;59.468;18.040;2024-02-23T05:38:34;98274.53;;;2.82;100.00
50380;BME280;37474;59.468;18.040;2024-02-23T05:41:03;98268.69;;;2.80;100.00
50380;BME280;37474;59.468;18.040;2024-02-23T05:43:32;98259.13;;;2.84;100.00
50380;BME280;37474;59.468;18.040;2024-02-23T05:46:02;98242.41;;;2.78;100.00
50380;BME280;37474;59.468;18.040;2024-02-23T05:48:30;98241.22;;;2.84;100.00
50380;BME280;37474;59.468;18.040;2024-02-23T05:51:00;98241.28;;;2.82;100.00
50380;BME280;37474;59.468;18.040;2024-02-23T05:53:29;98236.09;;;2.84;100.00
50380;BME280;37474;59.468;18.040;2024-02-23T05:55:59;98221.63;;;2.83;100.00
50380;BME280;37474;59.468;18.040;2024-02-23T05:58:27;98223.56;;;2.79;100.00
50380;BME280;37474;59.468;18.040;2024-02-23T06:00:55;98226.66;;;2.84;100.00
50380;BME280;37474;59.468;18.040;2024-02-23T06:03:23;98224.13;;;2.84;100.00
50380;BME280;37474;59.468;18.040;2024-02-23T06:05:52;98218.06;;;2.85;100.00
50380;BME280;37474;59.468;18.040;2024-02-23T06:08:22;98218.06;;;2.85;100.00
50380;BME280;37474;59.468;18.040;2024-02-23T06:10:50;98216.16;;;2.89;100.00
50380;BME280;37474;59.468;18.040;2024-02-23T06:13:18;98210.19;;;2.88;100.00
50380;BME280;37474;59.468;18.040;2024-02-23T06:15:47;98220.53;;;2.87;100.00
50380;BME280;37474;59.468;18.040;2024-02-23T06:18:15;98223.00;;;2.88;100.00
50380;BME280;37474;59.468;18.040;2024-02-23T06:20:45;98218.63;;;2.90;100.00
50380;BME280;37474;59.468;18.040;2024-02-23T06:23:13;98222.66;;;2.95;100.00
50380;BME280;37474;59.468;18.040;2024-02-23T06:25:43;98215.41;;;2.87;100.00
50380;BME280;37474;59.468;18.040;2024-02-23T06:28:13;98220.00;;;2.96;100.00
50380;BME280;37474;59.468;18.040;2024-02-23T06:30:41;98211.28;;;2.99;100.00
50380;BME280;37474;59.468;18.040;2024-02-23T06:33:09;98204.44;;;2.99;100.00
50380;BME280;37474;59.468;18.040;2024-02-23T06:35:37;98202.25;;;2.93;100.00
50380;BME280;37474;59.468;18.040;2024-02-23T06:38:05;98196.69;;;3.01;100.00
50380;BME280;37474;59.468;18.040;2024-02-23T06:40:33;98198.41;;;3.00;100.00
50380;BME280;37474;59.468;18.040;2024-02-23T06:43:18;98200.13;;;3.00;100.00
50380;BME280;37474;59.468;18.040;2024-02-23T06:45:49;98207.63;;;3.03;100.00
50380;BME280;37474;59.468;18.040;2024-02-23T06:48:17;98214.28;;;3.05;100.00
50380;BME280;37474;59.468;18.040;2024-02-23T06:50:45;98200.50;;;3.08;100.00
50380;BME280;37474;59.468;18.040;2024-02-23T06:53:13;98190.38;;;3.06;100.00
50380;BME280;37474;59.468;18.040;2024-02-23T06:55:41;98192.53;;;3.12;100.00
50380;BME280;37474;59.468;18.040;2024-02-23T06:58:09;98189.16;;;3.12;100.00
50380;BME280;37474;59.468;18.040;2024-02-23T07:00:41;98187.72;;;3.08;100.00
50380;BME280;37474;59.468;18.040;2024-02-23T07:03:09;98172.88;;;3.13;100.00
50380;BME280;37474;59.468;18.040;2024-02-23T07:05:38;98174.63;;;3.12;100.00
50380;BME280;37474;59.468;18.040;2024-02-23T07:08:09;98174.41;;;3.15;100.00
50380;BME280;37474;59.468;18.040;2024-02-23T07:10:37;98165.09;;;3.14;100.00
50380;BME280;37474;59.468;18.040;2024-02-23T07:13:05;98149.84;;;3.13;100.00
50380;BME280;37474;59.468;18.040;2024-02-23T07:15:34;98146.19;;;3.17;100.00
50380;BME280;37474;59.468;18.040;2024-02-23T07:18:04;98137.59;;;3.18;100.00
50380;BME280;37474;59.468;18.040;2024-02-23T07:20:38;98116.75;;;3.10;100.00
50380;BME280;37474;59.468;18.040;2024-02-23T07:23:06;98124.78;;;3.18;100.00
50380;BME280;37474;59.468;18.040;2024-02-23T07:25:34;98120.47;;;3.18;100.00
50380;BME280;37474;59.468;18.040;2024-02-23T07:28:02;98122.13;;;3.20;100.00
50380;BME280;37474;59.468;18.040;2024-02-23T07:30:30;98125.50;;;3.20;100.00
50380;BME280;37474;59.468;18.040;2024-02-23T07:32:58;98132.25;;;3.21;100.00
50380;BME280;37474;59.468;18.040;2024-02-23T07:35:29;98133.06;;;3.22;100.00
50380;BME280;37474;59.468;18.040;2024-02-23T07:37:57;98148.38;;;3.23;100.00
50380;BME280;37474;59.468;18.040;2024-02-23T07:40:26;98147.63;;;3.21;100.00
50380;BME280;37474;59.468;18.040;2024-02-23T07:42:54;98126.53;;;3.17;100.00
50380;BME280;37474;59.468;18.040;2024-02-23T07:45:22;98126.94;;;3.24;100.00
50380;BME280;37474;59.468;18.040;2024-02-23T07:47:49;98112.22;;;3.28;100.00
50380;BME280;37474;59.468;18.040;2024-02-23T07:50:18;98126.56;;;3.30;100.00
50380;BME280;37474;59.468;18.040;2024-02-23T07:52:47;98136.97;;;3.27;100.00
50380;BME280;37474;59.468;18.040;2024-02-23T07:55:15;98123.06;;;3.31;100.00
50380;BME280;37474;59.468;18.040;2024-02-23T07:57:44;98112.66;;;3.34;100.00
50380;BME280;37474;59.468;18.040;2024-02-23T08:00:12;98113.38;;;3.36;100.00
50380;BME280;37474;59.468;18.040;2024-02-23T08:02:40;98106.31;;;3.40;100.00
50380;BME280;37474;59.468;18.040;2024-02-23T08:05:08;98110.31;;;3.44;100.00
50380;BME280;37474;59.468;18.040;2024-02-23T08:07:38;98107.38;;;3.50;100.00
50380;BME280;37474;59.468;18.040;2024-02-23T08:10:09;98114.97;;;3.52;100.00
50380;BME280;37474;59.468;18.040;2024-02-23T08:12:38;98108.91;;;3.53;100.00
50380;BME280;37474;59.468;18.040;2024-02-23T08:15:09;98107.97;;;3.54;100.00
50380;BME280;37474;59.468;18.040;2024-02-23T08:17:37;98107.97;;;3.54;100.00
50380;BME280;37474;59.468;18.040;2024-02-23T08:20:06;98115.25;;;3.60;100.00
50380;BME280;37474;59.468;18.040;2024-02-23T08:22:34;98119.56;;;3.59;100.00
50380;BME280;37474;59.468;18.040;2024-02-23T08:25:03;98134.84;;;3.61;100.00
50380;BME280;37474;59.468;18.040;2024-02-23T08:27:33;98134.22;;;3.57;100.00
50380;BME280;37474;59.468;18.040;2024-02-23T08:30:01;98138.97;;;3.63;100.00
50380;BME280;37474;59.468;18.040;2024-02-23T08:32:29;98140.59;;;3.64;100.00
50380;BME280;37474;59.468;18.040;2024-02-23T08:34:58;98158.25;;;3.69;100.00
50380;BME280;37474;59.468;18.040;2024-02-23T08:37:27;98157.41;;;3.68;100.00
50380;BME280;37474;59.468;18.040;2024-02-23T08:39:55;98155.56;;;3.70;100.00
50380;BME280;37474;59.468;18.040;2024-02-23T08:42:23;98149.84;;;3.67;100.00
50380;BME280;37474;59.468;18.040;2024-02-23T08:44:52;98149.44;;;3.73;100.00
50380;BME280;37474;59.468;18.040;2024-02-23T08:47:21;98154.34;;;3.76;100.00
50380;BME280;37474;59.468;18.040;2024-02-23T08:49:49;98149.16;;;3.78;100.00
50380;BME280;37474;59.468;18.040;2024-02-23T08:52:17;98139.59;;;3.80;100.00
50380;BME280;37474;59.468;18.040;2024-02-23T08:54:44;98145.38;;;3.83;100.00
50380;BME280;37474;59.468;18.040;2024-02-23T08:57:12;98132.34;;;3.86;100.00
50380;BME280;37474;59.468;18.040;2024-02-23T08:59:44;98130.47;;;3.88;100.00
50380;BME280;37474;59.468;18.040;2024-02-23T09:02:13;98130.41;;;3.90;100.00
50380;BME280;37474;59.468;18.040;2024-02-23T09:04:41;98144.03;;;3.90;100.00
50380;BME280;37474;59.468;18.040;2024-02-23T09:07:11;98152.31;;;3.94;100.00
50380;BME280;37474;59.468;18.040;2024-02-23T09:09:40;98142.91;;;3.94;100.00
50380;BME280;37474;59.468;18.040;2024-02-23T09:12:08;98131.75;;;3.95;100.00
50380;BME280;37474;59.468;18.040;2024-02-23T09:14:38;98131.44;;;4.00;100.00
50380;BME280;37474;59.468;18.040;2024-02-23T09:17:12;98146.50;;;4.05;100.00
50380;BME280;37474;59.468;18.040;2024-02-23T09:19:40;98155.75;;;4.07;100.00
50380;BME280;37474;59.468;18.040;2024-02-23T09:22:08;98157.09;;;4.13;100.00
50380;BME280;37474;59.468;18.040;2024-02-23T09:24:39;98158.53;;;4.17;100.00
50380;BME280;37474;59.468;18.040;2024-02-23T09:27:06;98170.44;;;4.18;100.00
50380;BME280;37474;59.468;18.040;2024-02-23T09:29:35;98177.72;;;4.24;100.00
50380;BME280;37474;59.468;18.040;2024-02-23T09:32:03;98190.31;;;4.27;100.00
50380;BME280;37474;59.468;18.040;2024-02-23T09:34:33;98193.00;;;4.26;100.00
50380;BME280;37474;59.468;18.040;2024-02-23T09:37:01;98202.94;;;4.30;100.00
50380;BME280;37474;59.468;18.040;2024-02-23T09:39:29;98210.44;;;4.33;100.00
50380;BME280;37474;59.468;18.040;2024-02-23T09:41:57;98222.53;;;4.31;100.00
50380;BME280;37474;59.468;18.040;2024-02-23T09:44:26;98214.84;;;4.31;100.00
50380;BME280;37474;59.468;18.040;2024-02-23T09:47:00;98219.16;;;4.31;100.00
50380;BME280;37474;59.468;18.040;2024-02-23T09:49:38;98223.34;;;4.32;100.00
50380;BME280;37474;59.468;18.040;2024-02-23T09:52:07;98220.28;;;4.27;100.00
50380;BME280;37474;59.468;18.040;2024-02-23T09:54:40;98224.69;;;4.37;100.00
50380;BME280;37474;59.468;18.040;2024-02-23T09:57:10;98229.44;;;4.56;100.00
50380;BME280;37474;59.468;18.040;2024-02-23T09:59:38;98238.88;;;4.68;100.00
50380;BME280;37474;59.468;18.040;2024-02-23T10:02:08;98257.06;;;4.78;100.00
50380;BME280;37474;59.468;18.040;2024-02-23T10:04:39;98264.66;;;4.80;100.00
50380;BME280;37474;59.468;18.040;2024-02-23T10:07:07;98266.09;;;4.96;100.00
50380;BME280;37474;59.468;18.040;2024-02-23T10:09:36;98265.47;;;5.06;100.00
50380;BME280;37474;59.468;18.040;2024-02-23T10:12:04;98265.25;;;5.09;100.00
50380;BME280;37474;59.468;18.040;2024-02-23T10:14:32;98279.00;;;5.20;100.00
50380;BME280;37474;59.468;18.040;2024-02-23T10:17:00;98278.38;;;5.29;100.00
50380;BME280;37474;59.468;18.040;2024-02-23T10:19:29;98277.81;;;5.37;100.00
50380;BME280;37474;59.468;18.040;2024-02-23T10:21:59;98299.91;;;5.52;100.00
50380;BME280;37474;59.468;18.040;2024-02-23T10:24:27;98306.03;;;5.63;100.00
50380;BME280;37474;59.468;18.040;2024-02-23T10:26:55;98300.59;;;5.67;100.00
50380;BME280;37474;59.468;18.040;2024-02-23T10:29:23;98301.69;;;5.76;100.00
50380;BME280;37474;59.468;18.040;2024-02-23T10:31:51;98314.44;;;5.77;100.00
50380;BME280;37474;59.468;18.040;2024-02-23T10:34:20;98325.31;;;5.81;100.00
50380;BME280;37474;59.468;18.040;2024-02-23T10:36:48;98324.50;;;5.80;100.00
50380;BME280;37474;59.468;18.040;2024-02-23T10:39:18;98319.25;;;5.82;100.00
50380;BME280;37474;59.468;18.040;2024-02-23T10:41:53;98327.97;;;5.92;100.00
50380;BME280;37474;59.468;18.040;2024-02-23T10:44:23;98332.69;;;5.98;100.00
50380;BME280;37474;59.468;18.040;2024-02-23T10:46:53;98316.25;;;6.01;100.00
50380;BME280;37474;59.468;18.040;2024-02-23T10:49:23;98342.97;;;5.98;100.00
50380;BME280;37474;59.468;18.040;2024-02-23T10:51:54;98341.84;;;6.02;100.00
50380;BME280;37474;59.468;18.040;2024-02-23T10:54:25;98353.88;;;6.02;100.00
50380;BME280;37474;59.468;18.040;2024-02-23T10:56:53;98354.88;;;6.12;100.00
50380;BME280;37474;59.468;18.040;2024-02-23T10:59:23;98364.13;;;6.15;100.00
50380;BME280;37474;59.468;18.040;2024-02-23T11:01:52;98360.59;;;6.16;100.00
50380;BME280;37474;59.468;18.040;2024-02-23T11:04:24;98345.16;;;6.16;100.00
50380;BME280;37474;59.468;18.040;2024-02-23T11:06:55;98371.56;;;6.30;100.00
50380;BME280;37474;59.468;18.040;2024-02-23T11:09:27;98361.16;;;6.32;100.00
50380;BME280;37474;59.468;18.040;2024-02-23T11:11:57;98370.88;;;6.28;100.00
50380;BME280;37474;59.468;18.040;2024-02-23T11:14:29;98376.72;;;6.30;100.00
50380;BME280;37474;59.468;18.040;2024-02-23T11:17:00;98376.38;;;6.35;100.00
50380;BME280;37474;59.468;18.040;2024-02-23T11:19:35;98384.44;;;6.30;100.00
50380;BME280;37474;59.468;18.040;2024-02-23T11:22:04;98402.28;;;6.45;100.00
50380;BME280;37474;59.468;18.040;2024-02-23T11:24:44;98394.66;;;6.43;100.00
50380;BME280;37474;59.468;18.040;2024-02-23T11:27:14;98393.03;;;6.42;100.00
50380;BME280;37474;59.468;18.040;2024-02-23T11:29:46;98396.09;;;6.47;100.00
50380;BME280;37474;59.468;18.040;2024-02-23T11:32:16;98399.38;;;6.49;100.00
50380;BME280;37474;59.468;18.040;2024-02-23T11:34:54;98401.78;;;6.64;100.00
50380;BME280;37474;59.468;18.040;2024-02-23T11:37:23;98419.34;;;6.70;100.00
50380;BME280;37474;59.468;18.040;2024-02-23T11:39:53;98412.34;;;6.72;100.00
50380;BME280;37474;59.468;18.040;2024-02-23T11:42:23;98420.78;;;6.74;100.00
50380;BME280;37474;59.468;18.040;2024-02-23T11:44:52;98418.28;;;6.61;100.00
50380;BME280;37474;59.468;18.040;2024-02-23T11:47:21;98422.59;;;6.60;100.00
50380;BME280;37474;59.468;18.040;2024-02-23T11:49:49;98412.97;;;6.51;100.00
50380;BME280;37474;59.468;18.040;2024-02-23T11:52:17;98418.44;;;6.47;100.00
50380;BME280;37474;59.468;18.040;2024-02-23T11:54:46;98422.88;;;6.45;100.00
50380;BME280;37474;59.468;18.040;2024-02-23T11:57:15;98419.69;;;6.41;100.00
50380;BME280;37474;59.468;18.040;2024-02-23T11:59:43;98430.00;;;6.41;100.00
50380;BME280;37474;59.468;18.040;2024-02-23T12:02:12;98459.81;;;6.44;100.00
50380;BME280;37474;59.468;18.040;2024-02-23T12:04:41;98454.28;;;6.50;100.00
50380;BME280;37474;59.468;18.040;2024-02-23T12:07:09;98474.13;;;6.48;100.00
50380;BME280;37474;59.468;18.040;2024-02-23T12:09:37;98478.47;;;6.47;100.00
50380;BME280;37474;59.468;18.040;2024-02-23T12:12:07;98484.59;;;6.57;100.00
50380;BME280;37474;59.468;18.040;2024-02-23T12:14:37;98473.81;;;6.52;100.00
50380;BME280;37474;59.468;18.040;2024-02-23T12:17:07;98489.53;;;6.60;100.00
50380;BME280;37474;59.468;18.040;2024-02-23T12:19:38;98497.31;;;6.72;100.00
50380;BME280;37474;59.468;18.040;2024-02-23T12:22:10;98474.75;;;6.75;100.00
50380;BME280;37474;59.468;18.040;2024-02-23T12:24:40;98506.34;;;6.77;100.00
50380;BME280;37474;59.468;18.040;2024-02-23T12:27:16;98508.78;;;6.92;100.00
50380;BME280;37474;59.468;18.040;2024-02-23T12:29:52;98509.22;;;7.21;100.00
50380;BME280;37474;59.468;18.040;2024-02-23T12:32:20;98516.25;;;7.54;97.61
50380;BME280;37474;59.468;18.040;2024-02-23T12:34:49;98521.19;;;7.57;98.97
50380;BME280;37474;59.468;18.040;2024-02-23T12:37:17;98536.81;;;7.31;100.00
50380;BME280;37474;59.468;18.040;2024-02-23T12:39:47;98527.16;;;7.11;100.00
50380;BME280;37474;59.468;18.040;2024-02-23T12:42:18;98531.06;;;7.04;100.00
50380;BME280;37474;59.468;18.040;2024-02-23T12:44:46;98540.66;;;7.02;100.00
50380;BME280;37474;59.468;18.040;2024-02-23T12:47:16;98523.25;;;7.05;97.39
50380;BME280;37474;59.468;18.040;2024-02-23T12:49:44;98550.25;;;7.24;96.89
50380;BME280;37474;59.468;18.040;2024-02-23T12:52:12;98541.50;;;7.73;91.80
50380;BME280;37474;59.468;18.040;2024-02-23T12:54:41;98537.31;;;8.05;85.50
50380;BME280;37474;59.468;18.040;2024-02-23T12:57:09;98537.34;;;8.28;84.17
50380;BME280;37474;59.468;18.040;2024-02-23T12:59:37;98541.53;;;8.62;80.34